sensor_id;sensor_type;location;lat;lon;timestamp;P1;durP1;ratioP1;P2;durP2;ratioP2
11935;SDS011;6027;48.576;9.180;2023-07-24T00:01:02;12.73;;;11.73;;
11935;SDS011;6027;48.576;9.180;2023-07-24T00:03:27;12.70;;;11.60;;
11935;SDS011;6027;48.576;9.180;2023-07-24T00:05:53;13.88;;;12.77;;
11935;SDS011;6027;48.576;9.180;2023-07-24T00:08:22;12.00;;;10.80;;
11935;SDS011;6027;48.576;9.180;2023-07-24T00:10:47;12.20;;;11.10;;
11935;SDS011;6027;48.576;9.180;2023-07-24T00:13:13;13.13;;;11.82;;
11935;SDS011;6027;48.576;9.180;2023-07-24T00:15:38;13.15;;;11.98;;
11935;SDS011;6027;48.576;9.180;2023-07-24T00:18:04;11.57;;;10.02;;
11935;SDS011;6027;48.576;9.180;2023-07-24T00:20:30;11.95;;;10.98;;
11935;SDS011;6027;48.576;9.180;2023-07-24T00:22:55;12.27;;;11.07;;
11935;SDS011;6027;48.576;9.180;2023-07-24T00:25:21;13.23;;;12.02;;
11935;SDS011;6027;48.576;9.180;2023-07-24T00:27:46;12.65;;;11.65;;
11935;SDS011;6027;48.576;9.180;2023-07-24T00:30:11;12.63;;;11.48;;
11935;SDS011;6027;48.576;9.180;2023-07-24T00:32:37;12.95;;;11.93;;
11935;SDS011;6027;48.576;9.180;2023-07-24T00:35:02;11.88;;;10.88;;
11935;SDS011;6027;48.576;9.180;2023-07-24T00:37:28;12.00;;;11.00;;
11935;SDS011;6027;48.576;9.180;2023-07-24T00:39:53;12.98;;;11.68;;
11935;SDS011;6027;48.576;9.180;2023-07-24T00:42:19;13.85;;;12.68;;
11935;SDS011;6027;48.576;9.180;2023-07-24T00:44:44;11.98;;;10.60;;
11935;SDS011;6027;48.576;9.180;2023-07-24T00:47:09;13.02;;;11.95;;
11935;SDS011;6027;48.576;9.180;2023-07-24T00:49:35;11.18;;;10.18;;
11935;SDS011;6027;48.576;9.180;2023-07-24T00:52:01;12.82;;;11.68;;
11935;SDS011;6027;48.576;9.180;2023-07-24T00:54:26;12.55;;;11.50;;
11935;SDS011;6027;48.576;9.180;2023-07-24T00:56:55;14.00;;;12.75;;
11935;SDS011;6027;48.576;9.180;2023-07-24T00:59:21;12.80;;;11.80;;
11935;SDS011;6027;48.576;9.180;2023-07-24T01:01:47;12.55;;;11.48;;
11935;SDS011;6027;48.576;9.180;2023-07-24T01:04:13;12.23;;;11.13;;
11935;SDS011;6027;48.576;9.180;2023-07-24T01:06:39;12.80;;;11.70;;
11935;SDS011;6027;48.576;9.180;2023-07-24T01:09:05;11.88;;;10.77;;
11935;SDS011;6027;48.576;9.180;2023-07-24T01:11:39;12.30;;;11.25;;
11935;SDS011;6027;48.576;9.180;2023-07-24T01:16:46;12.25;;;11.10;;
11935;SDS011;6027;48.576;9.180;2023-07-24T01:19:16;13.57;;;12.30;;
11935;SDS011;6027;48.576;9.180;2023-07-24T01:25:18;12.05;;;11.05;;
11935;SDS011;6027;48.576;9.180;2023-07-24T01:27:42;12.52;;;11.43;;
11935;SDS011;6027;48.576;9.180;2023-07-24T01:30:09;13.52;;;12.23;;
11935;SDS011;6027;48.576;9.180;2023-07-24T01:32:36;13.65;;;12.45;;
11935;SDS011;6027;48.576;9.180;2023-07-24T01:35:02;12.63;;;11.43;;
11935;SDS011;6027;48.576;9.180;2023-07-24T01:37:34;13.07;;;11.98;;
11935;SDS011;6027;48.576;9.180;2023-07-24T01:40:00;13.20;;;12.10;;
11935;SDS011;6027;48.576;9.180;2023-07-24T01:42:25;12.77;;;11.57;;
11935;SDS011;6027;48.576;9.180;2023-07-24T01:44:53;12.13;;;11.15;;
11935;SDS011;6027;48.576;9.180;2023-07-24T01:47:19;13.32;;;12.02;;
11935;SDS011;6027;48.576;9.180;2023-07-24T01:49:45;13.98;;;12.75;;
11935;SDS011;6027;48.576;9.180;2023-07-24T01:52:10;12.20;;;11.13;;
11935;SDS011;6027;48.576;9.180;2023-07-24T01:54:36;11.85;;;10.75;;
11935;SDS011;6027;48.576;9.180;2023-07-24T01:57:01;12.57;;;11.43;;
11935;SDS011;6027;48.576;9.180;2023-07-24T01:59:27;13.18;;;12.07;;
11935;SDS011;6027;48.576;9.180;2023-07-24T02:01:52;11.32;;;10.32;;
11935;SDS011;6027;48.576;9.180;2023-07-24T02:04:18;12.85;;;11.65;;
11935;SDS011;6027;48.576;9.180;2023-07-24T02:06:47;13.15;;;12.15;;
11935;SDS011;6027;48.576;9.180;2023-07-24T02:09:13;13.63;;;11.50;;
11935;SDS011;6027;48.576;9.180;2023-07-24T02:11:39;11.90;;;10.70;;
11935;SDS011;6027;48.576;9.180;2023-07-24T02:14:04;13.40;;;12.23;;
11935;SDS011;6027;48.576;9.180;2023-07-24T02:16:29;13.27;;;12.00;;
11935;SDS011;6027;48.576;9.180;2023-07-24T02:18:55;12.07;;;11.07;;
11935;SDS011;6027;48.576;9.180;2023-07-24T02:21:20;12.30;;;11.20;;
11935;SDS011;6027;48.576;9.180;2023-07-24T02:23:46;12.25;;;11.15;;
11935;SDS011;6027;48.576;9.180;2023-07-24T02:26:11;12.25;;;11.23;;
11935;SDS011;6027;48.576;9.180;2023-07-24T02:28:37;11.73;;;10.73;;
11935;SDS011;6027;48.576;9.180;2023-07-24T02:31:03;12.00;;;11.00;;
11935;SDS011;6027;48.576;9.180;2023-07-24T02:33:28;11.68;;;10.48;;
11935;SDS011;6027;48.576;9.180;2023-07-24T02:35:54;12.70;;;11.70;;
11935;SDS011;6027;48.576;9.180;2023-07-24T02:38:19;13.95;;;12.60;;
11935;SDS011;6027;48.576;9.180;2023-07-24T02:40:45;13.52;;;12.32;;
11935;SDS011;6027;48.576;9.180;2023-07-24T02:43:10;11.80;;;10.80;;
11935;SDS011;6027;48.576;9.180;2023-07-24T02:45:36;11.88;;;10.93;;
11935;SDS011;6027;48.576;9.180;2023-07-24T02:48:02;12.27;;;11.07;;
11935;SDS011;6027;48.576;9.180;2023-07-24T02:50:28;12.25;;;11.25;;
11935;SDS011;6027;48.576;9.180;2023-07-24T02:52:54;11.77;;;10.77;;
11935;SDS011;6027;48.576;9.180;2023-07-24T02:55:19;12.60;;;11.52;;
11935;SDS011;6027;48.576;9.180;2023-07-24T02:57:44;13.95;;;12.48;;
11935;SDS011;6027;48.576;9.180;2023-07-24T03:00:10;12.52;;;11.32;;
11935;SDS011;6027;48.576;9.180;2023-07-24T03:02:36;11.90;;;10.93;;
11935;SDS011;6027;48.576;9.180;2023-07-24T03:05:03;12.15;;;11.05;;
11935;SDS011;6027;48.576;9.180;2023-07-24T03:07:29;12.40;;;11.32;;
11935;SDS011;6027;48.576;9.180;2023-07-24T03:09:54;12.85;;;11.75;;
11935;SDS011;6027;48.576;9.180;2023-07-24T03:12:19;11.18;;;10.07;;
11935;SDS011;6027;48.576;9.180;2023-07-24T03:14:45;12.82;;;11.73;;
11935;SDS011;6027;48.576;9.180;2023-07-24T03:17:10;13.70;;;12.50;;
11935;SDS011;6027;48.576;9.180;2023-07-24T03:19:36;12.18;;;11.18;;
11935;SDS011;6027;48.576;9.180;2023-07-24T03:22:01;13.18;;;12.07;;
11935;SDS011;6027;48.576;9.180;2023-07-24T03:24:27;12.13;;;11.05;;
11935;SDS011;6027;48.576;9.180;2023-07-24T03:26:53;11.93;;;10.82;;
11935;SDS011;6027;48.576;9.180;2023-07-24T03:29:18;12.70;;;11.60;;
11935;SDS011;6027;48.576;9.180;2023-07-24T03:31:43;11.48;;;10.40;;
11935;SDS011;6027;48.576;9.180;2023-07-24T03:34:09;12.45;;;11.25;;
11935;SDS011;6027;48.576;9.180;2023-07-24T03:36:34;12.65;;;11.00;;
11935;SDS011;6027;48.576;9.180;2023-07-24T03:39:00;12.23;;;11.13;;
11935;SDS011;6027;48.576;9.180;2023-07-24T03:41:26;12.63;;;11.45;;
11935;SDS011;6027;48.576;9.180;2023-07-24T03:43:51;12.82;;;11.70;;
11935;SDS011;6027;48.576;9.180;2023-07-24T03:46:17;11.48;;;10.27;;
11935;SDS011;6027;48.576;9.180;2023-07-24T03:48:42;12.77;;;11.57;;
11935;SDS011;6027;48.576;9.180;2023-07-24T03:51:07;11.77;;;10.77;;
11935;SDS011;6027;48.576;9.180;2023-07-24T03:53:33;13.38;;;12.18;;
11935;SDS011;6027;48.576;9.180;2023-07-24T03:55:59;12.90;;;11.75;;
11935;SDS011;6027;48.576;9.180;2023-07-24T03:58:24;12.45;;;11.38;;
11935;SDS011;6027;48.576;9.180;2023-07-24T04:00:50;14.57;;;13.38;;
11935;SDS011;6027;48.576;9.180;2023-07-24T04:03:15;11.93;;;10.88;;
11935;SDS011;6027;48.576;9.180;2023-07-24T04:05:41;12.70;;;11.55;;
11935;SDS011;6027;48.576;9.180;2023-07-24T04:08:06;13.10;;;11.90;;
11935;SDS011;6027;48.576;9.180;2023-07-24T04:10:32;13.23;;;12.00;;
11935;SDS011;6027;48.576;9.180;2023-07-24T04:12:58;12.45;;;11.15;;
11935;SDS011;6027;48.576;9.180;2023-07-24T04:15:23;13.13;;;11.93;;
11935;SDS011;6027;48.576;9.180;2023-07-24T04:17:48;13.98;;;12.77;;
11935;SDS011;6027;48.576;9.180;2023-07-24T04:20:14;12.95;;;11.75;;
11935;SDS011;6027;48.576;9.180;2023-07-24T04:22:40;13.93;;;12.70;;
11935;SDS011;6027;48.576;9.180;2023-07-24T04:25:06;11.60;;;10.57;;
11935;SDS011;6027;48.576;9.180;2023-07-24T04:27:32;12.73;;;11.63;;
11935;SDS011;6027;48.576;9.180;2023-07-24T04:29:57;12.90;;;11.80;;
11935;SDS011;6027;48.576;9.180;2023-07-24T04:32:23;12.43;;;11.35;;
11935;SDS011;6027;48.576;9.180;2023-07-24T04:34:48;12.98;;;11.98;;
11935;SDS011;6027;48.576;9.180;2023-07-24T04:37:14;13.10;;;11.77;;
11935;SDS011;6027;48.576;9.180;2023-07-24T04:39:39;13.13;;;11.93;;
11935;SDS011;6027;48.576;9.180;2023-07-24T04:42:05;12.70;;;11.50;;
11935;SDS011;6027;48.576;9.180;2023-07-24T04:44:30;12.23;;;11.02;;
11935;SDS011;6027;48.576;9.180;2023-07-24T04:46:57;13.85;;;12.65;;
11935;SDS011;6027;48.576;9.180;2023-07-24T04:49:23;13.07;;;11.98;;
11935;SDS011;6027;48.576;9.180;2023-07-24T04:51:49;12.23;;;11.15;;
11935;SDS011;6027;48.576;9.180;2023-07-24T04:54:15;12.13;;;11.10;;
11935;SDS011;6027;48.576;9.180;2023-07-24T04:56:40;14.15;;;12.93;;
11935;SDS011;6027;48.576;9.180;2023-07-24T04:59:06;13.60;;;12.50;;
11935;SDS011;6027;48.576;9.180;2023-07-24T05:01:31;13.70;;;12.52;;
11935;SDS011;6027;48.576;9.180;2023-07-24T05:03:57;12.95;;;11.63;;
11935;SDS011;6027;48.576;9.180;2023-07-24T05:06:22;12.60;;;11.43;;
11935;SDS011;6027;48.576;9.180;2023-07-24T05:08:48;13.93;;;12.73;;
11935;SDS011;6027;48.576;9.180;2023-07-24T05:11:14;12.18;;;11.07;;
11935;SDS011;6027;48.576;9.180;2023-07-24T05:13:39;12.95;;;11.63;;
11935;SDS011;6027;48.576;9.180;2023-07-24T05:16:05;14.45;;;13.05;;
11935;SDS011;6027;48.576;9.180;2023-07-24T05:18:30;13.38;;;12.20;;
11935;SDS011;6027;48.576;9.180;2023-07-24T05:20:55;12.38;;;11.18;;
11935;SDS011;6027;48.576;9.180;2023-07-24T05:23:21;13.23;;;11.93;;
11935;SDS011;6027;48.576;9.180;2023-07-24T05:25:46;14.32;;;12.95;;
11935;SDS011;6027;48.576;9.180;2023-07-24T05:28:15;13.30;;;12.10;;
11935;SDS011;6027;48.576;9.180;2023-07-24T05:30:40;13.82;;;12.52;;
11935;SDS011;6027;48.576;9.180;2023-07-24T05:33:06;12.90;;;11.77;;
11935;SDS011;6027;48.576;9.180;2023-07-24T05:35:31;16.08;;;13.23;;
11935;SDS011;6027;48.576;9.180;2023-07-24T05:37:57;11.80;;;10.80;;
11935;SDS011;6027;48.576;9.180;2023-07-24T05:40:22;13.48;;;12.18;;
11935;SDS011;6027;48.576;9.180;2023-07-24T05:42:48;13.65;;;12.38;;
11935;SDS011;6027;48.576;9.180;2023-07-24T05:45:13;13.82;;;12.50;;
11935;SDS011;6027;48.576;9.180;2023-07-24T05:47:41;14.18;;;12.85;;
11935;SDS011;6027;48.576;9.180;2023-07-24T05:50:07;14.30;;;13.00;;
11935;SDS011;6027;48.576;9.180;2023-07-24T05:52:33;12.77;;;11.70;;
11935;SDS011;6027;48.576;9.180;2023-07-24T05:54:58;12.57;;;11.48;;
11935;SDS011;6027;48.576;9.180;2023-07-24T05:57:24;12.80;;;11.48;;
11935;SDS011;6027;48.576;9.180;2023-07-24T05:59:50;13.98;;;12.15;;
11935;SDS011;6027;48.576;9.180;2023-07-24T06:02:17;12.20;;;11.15;;
11935;SDS011;6027;48.576;9.180;2023-07-24T06:04:42;15.25;;;13.82;;
11935;SDS011;6027;48.576;9.180;2023-07-24T06:07:07;13.77;;;12.57;;
11935;SDS011;6027;48.576;9.180;2023-07-24T06:09:33;13.95;;;12.65;;
11935;SDS011;6027;48.576;9.180;2023-07-24T06:11:58;14.32;;;13.02;;
11935;SDS011;6027;48.576;9.180;2023-07-24T06:14:24;18.83;;;13.45;;
11935;SDS011;6027;48.576;9.180;2023-07-24T06:16:49;13.40;;;12.20;;
11935;SDS011;6027;48.576;9.180;2023-07-24T06:19:15;14.68;;;13.35;;
11935;SDS011;6027;48.576;9.180;2023-07-24T06:21:41;14.35;;;12.95;;
11935;SDS011;6027;48.576;9.180;2023-07-24T06:24:06;14.02;;;12.77;;
11935;SDS011;6027;48.576;9.180;2023-07-24T06:26:36;14.48;;;13.27;;
11935;SDS011;6027;48.576;9.180;2023-07-24T06:29:02;12.93;;;11.63;;
11935;SDS011;6027;48.576;9.180;2023-07-24T06:31:27;13.07;;;11.98;;
11935;SDS011;6027;48.576;9.180;2023-07-24T06:33:53;14.43;;;12.93;;
11935;SDS011;6027;48.576;9.180;2023-07-24T06:36:18;14.85;;;13.65;;
11935;SDS011;6027;48.576;9.180;2023-07-24T06:38:44;13.15;;;11.70;;
11935;SDS011;6027;48.576;9.180;2023-07-24T06:41:11;14.32;;;13.07;;
11935;SDS011;6027;48.576;9.180;2023-07-24T06:43:37;13.82;;;12.63;;
11935;SDS011;6027;48.576;9.180;2023-07-24T06:46:03;17.30;;;12.07;;
11935;SDS011;6027;48.576;9.180;2023-07-24T06:48:28;15.15;;;13.85;;
11935;SDS011;6027;48.576;9.180;2023-07-24T06:50:54;15.20;;;13.80;;
11935;SDS011;6027;48.576;9.180;2023-07-24T06:53:20;15.20;;;13.85;;
11935;SDS011;6027;48.576;9.180;2023-07-24T06:55:45;13.15;;;12.05;;
11935;SDS011;6027;48.576;9.180;2023-07-24T06:58:11;15.90;;;13.75;;
11935;SDS011;6027;48.576;9.180;2023-07-24T07:00:36;14.43;;;12.73;;
11935;SDS011;6027;48.576;9.180;2023-07-24T07:03:01;14.43;;;12.77;;
11935;SDS011;6027;48.576;9.180;2023-07-24T07:05:27;14.90;;;13.60;;
11935;SDS011;6027;48.576;9.180;2023-07-24T07:07:53;15.60;;;14.00;;
11935;SDS011;6027;48.576;9.180;2023-07-24T07:10:18;14.77;;;13.48;;
11935;SDS011;6027;48.576;9.180;2023-07-24T07:12:43;13.73;;;12.48;;
11935;SDS011;6027;48.576;9.180;2023-07-24T07:15:09;15.10;;;13.80;;
11935;SDS011;6027;48.576;9.180;2023-07-24T07:17:34;16.60;;;14.95;;
11935;SDS011;6027;48.576;9.180;2023-07-24T07:20:00;15.23;;;13.90;;
11935;SDS011;6027;48.576;9.180;2023-07-24T07:22:25;15.98;;;14.05;;
11935;SDS011;6027;48.576;9.180;2023-07-24T07:24:51;15.15;;;13.80;;
11935;SDS011;6027;48.576;9.180;2023-07-24T07:27:16;15.38;;;14.00;;
11935;SDS011;6027;48.576;9.180;2023-07-24T07:29:43;13.95;;;12.73;;
11935;SDS011;6027;48.576;9.180;2023-07-24T07:32:09;15.57;;;14.05;;
11935;SDS011;6027;48.576;9.180;2023-07-24T07:34:34;14.70;;;13.25;;
11935;SDS011;6027;48.576;9.180;2023-07-24T07:37:01;20.10;;;14.65;;
11935;SDS011;6027;48.576;9.180;2023-07-24T07:39:26;14.43;;;13.10;;
11935;SDS011;6027;48.576;9.180;2023-07-24T07:41:52;14.15;;;12.70;;
11935;SDS011;6027;48.576;9.180;2023-07-24T07:44:17;13.00;;;11.88;;
11935;SDS011;6027;48.576;9.180;2023-07-24T07:46:43;14.82;;;13.52;;
11935;SDS011;6027;48.576;9.180;2023-07-24T07:49:08;14.27;;;13.13;;
11935;SDS011;6027;48.576;9.180;2023-07-24T07:51:33;13.63;;;12.30;;
11935;SDS011;6027;48.576;9.180;2023-07-24T07:53:59;15.73;;;13.20;;
11935;SDS011;6027;48.576;9.180;2023-07-24T07:56:24;16.20;;;14.63;;
11935;SDS011;6027;48.576;9.180;2023-07-24T07:58:50;14.93;;;13.65;;
11935;SDS011;6027;48.576;9.180;2023-07-24T08:01:15;15.02;;;13.48;;
11935;SDS011;6027;48.576;9.180;2023-07-24T08:03:41;15.15;;;13.95;;
11935;SDS011;6027;48.576;9.180;2023-07-24T08:06:06;13.40;;;12.20;;
11935;SDS011;6027;48.576;9.180;2023-07-24T08:08:32;14.00;;;11.13;;
11935;SDS011;6027;48.576;9.180;2023-07-24T08:10:57;14.45;;;13.18;;
11935;SDS011;6027;48.576;9.180;2023-07-24T08:13:23;13.63;;;12.43;;
11935;SDS011;6027;48.576;9.180;2023-07-24T08:15:49;14.38;;;12.90;;
11935;SDS011;6027;48.576;9.180;2023-07-24T08:18:14;13.77;;;12.55;;
11935;SDS011;6027;48.576;9.180;2023-07-24T08:20:40;14.75;;;13.20;;
11935;SDS011;6027;48.576;9.180;2023-07-24T08:23:05;13.32;;;12.05;;
11935;SDS011;6027;48.576;9.180;2023-07-24T08:25:31;14.07;;;10.63;;
11935;SDS011;6027;48.576;9.180;2023-07-24T08:27:56;14.95;;;12.13;;
11935;SDS011;6027;48.576;9.180;2023-07-24T08:30:22;13.65;;;12.35;;
11935;SDS011;6027;48.576;9.180;2023-07-24T08:32:47;13.85;;;12.65;;
11935;SDS011;6027;48.576;9.180;2023-07-24T08:35:15;14.70;;;13.40;;
11935;SDS011;6027;48.576;9.180;2023-07-24T08:37:44;14.57;;;13.48;;
11935;SDS011;6027;48.576;9.180;2023-07-24T08:40:09;13.57;;;12.40;;
11935;SDS011;6027;48.576;9.180;2023-07-24T08:42:38;14.82;;;13.48;;
11935;SDS011;6027;48.576;9.180;2023-07-24T08:45:08;12.93;;;11.73;;
11935;SDS011;6027;48.576;9.180;2023-07-24T08:47:44;12.98;;;11.77;;
11935;SDS011;6027;48.576;9.180;2023-07-24T08:50:09;14.70;;;13.52;;
11935;SDS011;6027;48.576;9.180;2023-07-24T08:52:40;13.98;;;12.68;;
11935;SDS011;6027;48.576;9.180;2023-07-24T08:55:07;16.02;;;14.57;;
11935;SDS011;6027;48.576;9.180;2023-07-24T08:57:33;15.70;;;14.38;;
11935;SDS011;6027;48.576;9.180;2023-07-24T08:59:59;14.75;;;13.45;;
11935;SDS011;6027;48.576;9.180;2023-07-24T09:02:29;14.30;;;13.10;;
11935;SDS011;6027;48.576;9.180;2023-07-24T09:04:55;14.13;;;13.02;;
11935;SDS011;6027;48.576;9.180;2023-07-24T09:07:21;13.73;;;12.70;;
11935;SDS011;6027;48.576;9.180;2023-07-24T09:09:46;14.68;;;13.00;;
11935;SDS011;6027;48.576;9.180;2023-07-24T09:12:15;14.68;;;13.48;;
11935;SDS011;6027;48.576;9.180;2023-07-24T09:14:41;15.40;;;13.75;;
11935;SDS011;6027;48.576;9.180;2023-07-24T09:17:10;14.13;;;13.10;;
11935;SDS011;6027;48.576;9.180;2023-07-24T09:19:36;14.95;;;13.65;;
11935;SDS011;6027;48.576;9.180;2023-07-24T09:22:09;14.70;;;13.60;;
11935;SDS011;6027;48.576;9.180;2023-07-24T09:24:36;12.88;;;11.68;;
11935;SDS011;6027;48.576;9.180;2023-07-24T09:27:04;13.77;;;12.55;;
11935;SDS011;6027;48.576;9.180;2023-07-24T09:29:31;13.65;;;12.35;;
11935;SDS011;6027;48.576;9.180;2023-07-24T09:31:58;13.25;;;12.25;;
11935;SDS011;6027;48.576;9.180;2023-07-24T09:34:24;13.85;;;12.80;;
11935;SDS011;6027;48.576;9.180;2023-07-24T09:36:51;12.82;;;11.80;;
11935;SDS011;6027;48.576;9.180;2023-07-24T09:39:22;13.77;;;12.57;;
11935;SDS011;6027;48.576;9.180;2023-07-24T09:41:51;12.43;;;11.52;;
11935;SDS011;6027;48.576;9.180;2023-07-24T09:44:17;14.35;;;13.15;;
11935;SDS011;6027;48.576;9.180;2023-07-24T09:46:43;13.65;;;12.40;;
11935;SDS011;6027;48.576;9.180;2023-07-24T09:49:09;14.18;;;13.18;;
11935;SDS011;6027;48.576;9.180;2023-07-24T09:51:35;14.40;;;13.20;;
11935;SDS011;6027;48.576;9.180;2023-07-24T09:54:22;14.10;;;13.00;;
11935;SDS011;6027;48.576;9.180;2023-07-24T09:56:56;12.73;;;11.73;;
11935;SDS011;6027;48.576;9.180;2023-07-24T09:59:22;14.55;;;13.23;;
11935;SDS011;6027;48.576;9.180;2023-07-24T10:01:49;12.80;;;11.90;;
11935;SDS011;6027;48.576;9.180;2023-07-24T10:04:16;14.43;;;13.13;;
11935;SDS011;6027;48.576;9.180;2023-07-24T10:06:43;13.27;;;12.18;;
11935;SDS011;6027;48.576;9.180;2023-07-24T10:09:08;13.07;;;11.55;;
11935;SDS011;6027;48.576;9.180;2023-07-24T10:11:34;12.88;;;11.75;;
11935;SDS011;6027;48.576;9.180;2023-07-24T10:13:59;12.43;;;11.05;;
11935;SDS011;6027;48.576;9.180;2023-07-24T10:16:26;16.55;;;13.20;;
11935;SDS011;6027;48.576;9.180;2023-07-24T10:18:51;14.90;;;13.80;;
11935;SDS011;6027;48.576;9.180;2023-07-24T10:21:17;13.13;;;11.93;;
11935;SDS011;6027;48.576;9.180;2023-07-24T10:23:43;14.45;;;13.15;;
11935;SDS011;6027;48.576;9.180;2023-07-24T10:26:11;15.82;;;14.32;;
11935;SDS011;6027;48.576;9.180;2023-07-24T10:28:38;15.00;;;13.55;;
11935;SDS011;6027;48.576;9.180;2023-07-24T10:31:23;13.70;;;12.63;;
11935;SDS011;6027;48.576;9.180;2023-07-24T10:33:54;13.98;;;12.75;;
11935;SDS011;6027;48.576;9.180;2023-07-24T10:36:22;17.00;;;15.57;;
11935;SDS011;6027;48.576;9.180;2023-07-24T10:38:54;14.95;;;13.80;;
11935;SDS011;6027;48.576;9.180;2023-07-24T10:41:21;13.10;;;12.00;;
11935;SDS011;6027;48.576;9.180;2023-07-24T10:43:48;13.98;;;12.82;;
11935;SDS011;6027;48.576;9.180;2023-07-24T10:46:16;14.32;;;13.18;;
11935;SDS011;6027;48.576;9.180;2023-07-24T10:48:44;12.13;;;11.10;;
11935;SDS011;6027;48.576;9.180;2023-07-24T10:51:11;12.15;;;10.95;;
11935;SDS011;6027;48.576;9.180;2023-07-24T10:53:40;13.30;;;12.20;;
11935;SDS011;6027;48.576;9.180;2023-07-24T10:56:09;13.85;;;12.55;;
11935;SDS011;6027;48.576;9.180;2023-07-24T10:58:34;14.32;;;13.23;;
11935;SDS011;6027;48.576;9.180;2023-07-24T11:01:02;14.27;;;13.23;;
11935;SDS011;6027;48.576;9.180;2023-07-24T11:03:30;14.52;;;13.35;;
11935;SDS011;6027;48.576;9.180;2023-07-24T11:05:56;13.73;;;12.63;;
11935;SDS011;6027;48.576;9.180;2023-07-24T11:08:23;12.75;;;11.60;;
11935;SDS011;6027;48.576;9.180;2023-07-24T11:10:52;13.93;;;12.77;;
11935;SDS011;6027;48.576;9.180;2023-07-24T11:13:20;12.30;;;11.32;;
11935;SDS011;6027;48.576;9.180;2023-07-24T11:15:47;13.40;;;12.35;;
11935;SDS011;6027;48.576;9.180;2023-07-24T11:18:14;13.48;;;12.30;;
11935;SDS011;6027;48.576;9.180;2023-07-24T11:20:46;15.02;;;13.73;;
11935;SDS011;6027;48.576;9.180;2023-07-24T11:23:14;16.45;;;15.05;;
11935;SDS011;6027;48.576;9.180;2023-07-24T11:25:40;14.27;;;13.00;;
11935;SDS011;6027;48.576;9.180;2023-07-24T11:28:06;14.57;;;13.05;;
11935;SDS011;6027;48.576;9.180;2023-07-24T11:30:33;13.40;;;12.35;;
11935;SDS011;6027;48.576;9.180;2023-07-24T11:33:00;13.52;;;12.32;;
11935;SDS011;6027;48.576;9.180;2023-07-24T11:35:27;14.73;;;13.23;;
11935;SDS011;6027;48.576;9.180;2023-07-24T11:37:53;13.77;;;12.68;;
11935;SDS011;6027;48.576;9.180;2023-07-24T11:40:19;11.93;;;11.00;;
11935;SDS011;6027;48.576;9.180;2023-07-24T11:42:46;14.02;;;13.02;;
11935;SDS011;6027;48.576;9.180;2023-07-24T11:45:13;16.77;;;15.45;;
11935;SDS011;6027;48.576;9.180;2023-07-24T11:47:45;16.83;;;15.50;;
11935;SDS011;6027;48.576;9.180;2023-07-24T11:50:12;19.35;;;17.92;;
11935;SDS011;6027;48.576;9.180;2023-07-24T11:52:42;18.35;;;16.83;;
11935;SDS011;6027;48.576;9.180;2023-07-24T11:55:14;16.80;;;15.55;;
11935;SDS011;6027;48.576;9.180;2023-07-24T11:57:41;17.92;;;16.50;;
11935;SDS011;6027;48.576;9.180;2023-07-24T12:00:17;17.65;;;16.25;;
11935;SDS011;6027;48.576;9.180;2023-07-24T12:02:44;17.77;;;16.42;;
11935;SDS011;6027;48.576;9.180;2023-07-24T12:05:10;16.17;;;14.82;;
11935;SDS011;6027;48.576;9.180;2023-07-24T12:07:36;15.63;;;14.43;;
11935;SDS011;6027;48.576;9.180;2023-07-24T12:10:04;15.05;;;13.85;;
11935;SDS011;6027;48.576;9.180;2023-07-24T12:12:44;17.80;;;16.40;;
11935;SDS011;6027;48.576;9.180;2023-07-24T12:15:12;15.75;;;14.57;;
11935;SDS011;6027;48.576;9.180;2023-07-24T12:17:39;16.40;;;15.18;;
11935;SDS011;6027;48.576;9.180;2023-07-24T12:20:05;17.45;;;16.13;;
11935;SDS011;6027;48.576;9.180;2023-07-24T12:22:33;14.73;;;13.70;;
11935;SDS011;6027;48.576;9.180;2023-07-24T12:25:00;15.38;;;14.07;;
11935;SDS011;6027;48.576;9.180;2023-07-24T12:27:26;17.67;;;16.45;;
11935;SDS011;6027;48.576;9.180;2023-07-24T12:29:51;13.52;;;12.60;;
11935;SDS011;6027;48.576;9.180;2023-07-24T12:32:17;12.55;;;11.45;;
11935;SDS011;6027;48.576;9.180;2023-07-24T12:34:43;13.77;;;12.68;;
11935;SDS011;6027;48.576;9.180;2023-07-24T12:37:10;13.85;;;12.80;;
11935;SDS011;6027;48.576;9.180;2023-07-24T12:39:35;16.33;;;15.10;;
11935;SDS011;6027;48.576;9.180;2023-07-24T12:42:01;14.25;;;13.25;;
11935;SDS011;6027;48.576;9.180;2023-07-24T12:44:26;15.80;;;14.70;;
11935;SDS011;6027;48.576;9.180;2023-07-24T12:46:52;15.30;;;14.27;;
11935;SDS011;6027;48.576;9.180;2023-07-24T12:49:17;15.90;;;14.80;;
11935;SDS011;6027;48.576;9.180;2023-07-24T12:51:43;14.75;;;13.65;;
11935;SDS011;6027;48.576;9.180;2023-07-24T12:54:08;14.73;;;13.73;;
11935;SDS011;6027;48.576;9.180;2023-07-24T12:56:34;15.38;;;14.23;;
11935;SDS011;6027;48.576;9.180;2023-07-24T12:59:00;13.57;;;12.57;;
11935;SDS011;6027;48.576;9.180;2023-07-24T13:01:26;15.10;;;14.10;;
11935;SDS011;6027;48.576;9.180;2023-07-24T13:03:53;14.65;;;13.65;;
11935;SDS011;6027;48.576;9.180;2023-07-24T13:06:19;13.63;;;12.68;;
11935;SDS011;6027;48.576;9.180;2023-07-24T13:08:45;14.73;;;13.63;;
11935;SDS011;6027;48.576;9.180;2023-07-24T13:11:10;15.80;;;14.68;;
11935;SDS011;6027;48.576;9.180;2023-07-24T13:13:35;14.18;;;12.98;;
11935;SDS011;6027;48.576;9.180;2023-07-24T13:16:01;16.60;;;15.50;;
11935;SDS011;6027;48.576;9.180;2023-07-24T13:18:28;13.50;;;12.50;;
11935;SDS011;6027;48.576;9.180;2023-07-24T13:20:54;15.27;;;14.07;;
11935;SDS011;6027;48.576;9.180;2023-07-24T13:23:19;13.18;;;12.13;;
11935;SDS011;6027;48.576;9.180;2023-07-24T13:25:45;13.13;;;12.15;;
11935;SDS011;6027;48.576;9.180;2023-07-24T13:28:10;13.02;;;12.02;;
11935;SDS011;6027;48.576;9.180;2023-07-24T13:30:35;12.68;;;11.80;;
11935;SDS011;6027;48.576;9.180;2023-07-24T13:33:01;13.50;;;12.60;;
11935;SDS011;6027;48.576;9.180;2023-07-24T13:35:26;11.70;;;10.90;;
11935;SDS011;6027;48.576;9.180;2023-07-24T13:37:52;11.75;;;10.95;;
11935;SDS011;6027;48.576;9.180;2023-07-24T13:40:17;12.82;;;11.93;;
11935;SDS011;6027;48.576;9.180;2023-07-24T13:42:43;11.73;;;10.82;;
11935;SDS011;6027;48.576;9.180;2023-07-24T13:45:08;12.55;;;11.75;;
11935;SDS011;6027;48.576;9.180;2023-07-24T13:47:34;11.07;;;10.35;;
11935;SDS011;6027;48.576;9.180;2023-07-24T13:50:00;13.80;;;12.90;;
11935;SDS011;6027;48.576;9.180;2023-07-24T13:52:28;12.38;;;11.38;;
11935;SDS011;6027;48.576;9.180;2023-07-24T13:54:54;13.63;;;12.73;;
11935;SDS011;6027;48.576;9.180;2023-07-24T13:57:20;11.90;;;11.10;;
11935;SDS011;6027;48.576;9.180;2023-07-24T13:59:46;13.52;;;12.63;;
11935;SDS011;6027;48.576;9.180;2023-07-24T14:02:12;12.80;;;12.00;;
11935;SDS011;6027;48.576;9.180;2023-07-24T14:04:38;12.40;;;11.55;;
11935;SDS011;6027;48.576;9.180;2023-07-24T14:07:03;12.27;;;11.30;;
11935;SDS011;6027;48.576;9.180;2023-07-24T14:09:29;12.95;;;12.05;;
11935;SDS011;6027;48.576;9.180;2023-07-24T14:11:56;13.68;;;12.77;;
11935;SDS011;6027;48.576;9.180;2023-07-24T14:14:22;10.20;;;9.50;;
11935;SDS011;6027;48.576;9.180;2023-07-24T14:16:48;11.05;;;10.25;;
11935;SDS011;6027;48.576;9.180;2023-07-24T14:19:14;13.75;;;12.88;;
11935;SDS011;6027;48.576;9.180;2023-07-24T14:21:40;13.15;;;12.15;;
11935;SDS011;6027;48.576;9.180;2023-07-24T14:24:06;12.40;;;11.50;;
11935;SDS011;6027;48.576;9.180;2023-07-24T14:26:31;10.40;;;9.60;;
11935;SDS011;6027;48.576;9.180;2023-07-24T14:28:57;10.07;;;9.35;;
11935;SDS011;6027;48.576;9.180;2023-07-24T14:31:23;11.57;;;10.85;;
11935;SDS011;6027;48.576;9.180;2023-07-24T14:33:48;9.40;;;8.80;;
11935;SDS011;6027;48.576;9.180;2023-07-24T14:36:17;11.82;;;11.02;;